createdAt,value
2018-11-14T00:00:22.156Z,10.91
2018-11-14T00:02:51.217Z,10.83
2018-11-14T00:05:20.028Z,10.86
2018-11-14T00:07:48.896Z,10.88
2018-11-14T00:10:18.164Z,10.77
2018-11-14T00:12:46.545Z,10.83
2018-11-14T00:15:16.810Z,10.78
2018-11-14T00:17:46.490Z,10.78
2018-11-14T00:20:15.353Z,10.81
2018-11-14T00:22:45.488Z,10.84
2018-11-14T00:25:14.203Z,10.84
2018-11-14T00:27:43.001Z,10.76
2018-11-14T00:30:28.382Z,10.81
2018-11-14T00:32:57.149Z,10.85
2018-11-14T00:35:25.850Z,10.81
2018-11-14T00:37:54.679Z,10.72
2018-11-14T00:40:23.512Z,10.74
2018-11-14T00:42:52.330Z,10.72
2018-11-14T00:45:22.511Z,10.68
2018-11-14T00:47:51.619Z,10.65
2018-11-14T00:50:21.024Z,10.58
2018-11-14T00:52:49.945Z,10.61
2018-11-14T00:55:19.862Z,10.58
2018-11-14T00:57:49.454Z,10.54
2018-11-14T01:00:19.723Z,10.55
2018-11-14T01:02:48.416Z,10.57
2018-11-14T01:05:17.756Z,10.63
2018-11-14T01:07:46.652Z,10.56
2018-11-14T01:10:16.897Z,10.59
2018-11-14T01:12:47.164Z,10.60
2018-11-14T01:15:17.542Z,10.58
2018-11-14T01:17:46.316Z,10.49
2018-11-14T01:20:17.575Z,10.51
2018-11-14T01:22:58.007Z,10.46
2018-11-14T01:25:26.906Z,10.48
2018-11-14T01:27:55.688Z,10.51
2018-11-14T01:30:25.129Z,10.50
2018-11-14T01:32:57.459Z,10.40
2018-11-14T01:35:26.166Z,10.44
2018-11-14T01:37:54.875Z,10.47
2018-11-14T01:40:25.127Z,10.49
2018-11-14T01:42:55.165Z,10.49
2018-11-14T01:45:23.971Z,10.47
2018-11-14T01:47:53.042Z,10.48
2018-11-14T01:50:21.752Z,10.49
2018-11-14T01:52:50.474Z,10.48
2018-11-14T01:55:20.778Z,10.39
2018-11-14T01:57:49.491Z,10.36
2018-11-14T02:00:19.966Z,10.33
2018-11-14T02:02:48.740Z,10.39
2018-11-14T02:05:17.534Z,10.43
2018-11-14T02:07:46.286Z,10.40
2018-11-14T02:10:16.551Z,10.35
2018-11-14T02:12:45.654Z,10.35
2018-11-14T02:15:19.709Z,10.30
2018-11-14T02:17:48.428Z,10.33
2018-11-14T02:20:17.143Z,10.39
2018-11-14T02:22:46.321Z,10.33
2018-11-14T02:25:15.690Z,10.28
2018-11-14T02:27:44.453Z,10.23
2018-11-14T02:30:15.559Z,10.20
2018-11-14T02:32:44.309Z,10.15
2018-11-14T02:35:13.081Z,10.21
2018-11-14T02:37:43.087Z,10.14
2018-11-14T02:40:16.359Z,10.12
2018-11-14T02:42:45.251Z,10.12
2018-11-14T02:45:14.431Z,10.10
2018-11-14T02:47:43.169Z,10.03
2018-11-14T02:50:13.732Z,10.10
2018-11-14T02:52:42.483Z,10.13
2018-11-14T02:55:12.510Z,10.08
2018-11-14T02:57:41.454Z,10.09
2018-11-14T03:00:13.100Z,10.07
2018-11-14T03:02:42.350Z,10.08
2018-11-14T03:05:11.110Z,10.11
2018-11-14T03:07:39.839Z,10.12
2018-11-14T03:10:12.247Z,10.06
2018-11-14T03:12:41.090Z,10.06
2018-11-14T03:15:13.125Z,9.99
2018-11-14T03:17:41.923Z,9.95
2018-11-14T03:20:13.145Z,9.97
2018-11-14T03:22:42.027Z,9.88
2018-11-14T03:25:11.870Z,9.86
2018-11-14T03:27:40.602Z,9.90
2018-11-14T03:30:11.694Z,9.86
2018-11-14T03:32:40.905Z,9.88
2018-11-14T03:35:10.398Z,9.88
2018-11-14T03:37:39.341Z,9.90
2018-11-14T03:40:09.944Z,9.93
2018-11-14T03:42:39.278Z,9.95
2018-11-14T03:45:09.502Z,9.91
2018-11-14T03:47:39.474Z,9.97
2018-11-14T03:50:08.674Z,10.02
2018-11-14T03:52:37.511Z,10.12
2018-11-14T03:55:06.576Z,10.17
2018-11-14T03:57:35.279Z,10.22
2018-11-14T04:00:05.026Z,10.24
2018-11-14T04:02:33.733Z,10.16
2018-11-14T04:05:02.410Z,10.21
2018-11-14T04:07:31.216Z,10.28
2018-11-14T04:09:59.876Z,10.23
2018-11-14T04:12:28.607Z,10.23
2018-11-14T04:14:57.397Z,10.19
2018-11-14T04:17:26.105Z,10.21
2018-11-14T04:19:54.995Z,10.18
2018-11-14T04:22:23.733Z,10.15
2018-11-14T04:24:52.401Z,10.15
2018-11-14T04:27:21.089Z,10.18
2018-11-14T04:29:49.812Z,10.13
2018-11-14T04:32:18.477Z,10.15
2018-11-14T04:34:47.211Z,10.18
2018-11-14T04:37:16.039Z,10.24
2018-11-14T04:39:44.682Z,10.19
2018-11-14T04:42:13.374Z,10.19
2018-11-14T04:44:42.143Z,10.23
2018-11-14T04:47:10.867Z,10.14
2018-11-14T04:49:39.583Z,10.20
2018-11-14T04:52:08.607Z,10.30
2018-11-14T04:54:37.326Z,10.30
2018-11-14T04:57:06.180Z,10.37
2018-11-14T04:59:35.019Z,10.34
2018-11-14T05:02:03.708Z,10.35
2018-11-14T05:04:32.415Z,10.39
2018-11-14T05:07:01.238Z,10.41
2018-11-14T05:09:29.961Z,10.30
2018-11-14T05:11:58.728Z,10.29
2018-11-14T05:14:27.498Z,10.39
2018-11-14T05:16:56.225Z,10.31
2018-11-14T05:19:25.142Z,10.41
2018-11-14T05:21:54.217Z,10.39
2018-11-14T05:24:22.965Z,10.30
2018-11-14T05:26:51.786Z,10.40
2018-11-14T05:29:20.618Z,10.46
2018-11-14T05:31:49.369Z,10.48
2018-11-14T05:34:18.061Z,10.49
2018-11-14T05:36:46.817Z,10.58
2018-11-14T05:39:15.551Z,10.58
2018-11-14T05:41:44.333Z,10.42
2018-11-14T05:44:13.066Z,10.26
2018-11-14T05:46:41.781Z,10.30
2018-11-14T05:49:10.492Z,10.45
2018-11-14T05:51:39.573Z,10.39
2018-11-14T05:54:08.348Z,10.51
2018-11-14T05:56:37.061Z,10.51
2018-11-14T05:59:05.799Z,10.64
2018-11-14T06:01:34.565Z,10.68
2018-11-14T06:04:10.582Z,10.65
2018-11-14T06:06:39.467Z,10.73
2018-11-14T06:09:11.418Z,10.83
2018-11-14T06:11:40.180Z,10.73
2018-11-14T06:14:09.698Z,10.69
2018-11-14T06:21:33.507Z,10.65
2018-11-14T06:24:02.364Z,10.70
2018-11-14T06:26:31.105Z,10.68
2018-11-14T06:29:00.121Z,10.67
2018-11-14T06:31:28.834Z,10.61
2018-11-14T06:33:57.599Z,10.59
2018-11-14T06:36:26.374Z,10.62
2018-11-14T06:38:55.129Z,10.53
2018-11-14T06:41:23.827Z,10.55
2018-11-14T06:43:52.543Z,10.45
2018-11-14T06:46:21.210Z,10.47
2018-11-14T06:48:49.894Z,10.54
2018-11-14T06:51:18.939Z,10.64
2018-11-14T06:53:47.650Z,10.59
2018-11-14T06:56:16.367Z,10.60
2018-11-14T06:58:45.149Z,10.51
2018-11-14T07:01:13.838Z,10.56
2018-11-14T07:03:42.584Z,10.71
2018-11-14T07:06:11.626Z,10.66
2018-11-14T07:08:40.471Z,10.44
2018-11-14T07:11:09.827Z,10.57
2018-11-14T07:13:38.894Z,10.53
2018-11-14T07:16:07.660Z,10.59
2018-11-14T07:18:36.410Z,10.55
2018-11-14T07:21:05.312Z,10.67
2018-11-14T07:23:34.171Z,10.82
2018-11-14T07:26:03.117Z,10.94
2018-11-14T07:28:31.995Z,11.07
2018-11-14T07:31:00.796Z,11.10
2018-11-14T07:33:29.984Z,11.18
2018-11-14T07:35:58.850Z,11.25
2018-11-14T07:38:49.861Z,11.11
2018-11-14T07:41:22.146Z,11.18
2018-11-14T07:43:50.875Z,11.19
2018-11-14T07:46:19.804Z,11.20
2018-11-14T07:48:49.456Z,11.21
2018-11-14T07:51:18.246Z,11.20
2018-11-14T07:53:47.009Z,11.24
2018-11-14T07:56:16.051Z,11.24
2018-11-14T07:58:44.757Z,11.27
2018-11-14T08:01:13.613Z,11.21
2018-11-14T08:03:42.992Z,11.24
2018-11-14T08:06:12.490Z,11.22
2018-11-14T08:08:41.302Z,11.24
2018-11-14T08:11:10.500Z,11.18
2018-11-14T08:13:41.609Z,11.23
2018-11-14T08:16:10.378Z,11.14
2018-11-14T08:18:39.877Z,11.10
2018-11-14T08:21:08.711Z,11.11
2018-11-14T08:23:37.414Z,11.14
2018-11-14T08:26:07.075Z,11.13
2018-11-14T08:28:35.854Z,11.16
2018-11-14T08:31:04.734Z,11.26
2018-11-14T08:33:33.570Z,11.27
2018-11-14T08:36:02.390Z,11.15
2018-11-14T08:38:31.222Z,11.17
2018-11-14T08:41:00.274Z,11.32
2018-11-14T08:43:29.005Z,11.45
2018-11-14T08:45:57.720Z,11.45
2018-11-14T08:48:26.873Z,11.55
2018-11-14T08:50:55.607Z,11.53
2018-11-14T08:53:24.345Z,11.57
2018-11-14T08:55:53.236Z,11.56
2018-11-14T08:58:21.958Z,11.62
2018-11-14T09:00:50.681Z,11.67
2018-11-14T09:03:19.574Z,11.61
2018-11-14T09:05:48.302Z,11.63
2018-11-14T09:08:17.075Z,11.61
2018-11-14T09:10:45.892Z,11.64
2018-11-14T09:13:15.779Z,11.69
2018-11-14T09:15:44.633Z,11.82
2018-11-14T09:18:13.612Z,11.90
2018-11-14T09:20:42.650Z,11.85
2018-11-14T09:23:11.969Z,11.86
2018-11-14T09:25:41.752Z,11.78
2018-11-14T09:28:10.782Z,11.80
2018-11-14T09:30:39.944Z,11.76
2018-11-14T09:33:09.171Z,11.86
2018-11-14T09:35:37.845Z,11.91
2018-11-14T09:38:06.623Z,11.93
2018-11-14T09:40:35.515Z,11.97
2018-11-14T09:43:04.371Z,12.13
2018-11-14T09:45:33.193Z,12.28
2018-11-14T09:48:01.958Z,12.20
2018-11-14T09:50:31.696Z,12.19
2018-11-14T09:53:02.798Z,12.16
2018-11-14T09:55:31.520Z,12.15
2018-11-14T09:58:00.284Z,12.24
2018-11-14T10:00:30.364Z,12.37
2018-11-14T10:03:03.067Z,12.45
2018-11-14T10:05:31.953Z,12.42
2018-11-14T10:08:00.691Z,12.33
2018-11-14T10:10:29.389Z,12.40
2018-11-14T10:12:58.283Z,12.50
2018-11-14T10:15:27.082Z,12.61
2018-11-14T10:17:55.841Z,12.59
2018-11-14T10:20:25.753Z,12.61
2018-11-14T10:22:54.507Z,12.58
2018-11-14T10:25:23.303Z,12.67
2018-11-14T10:27:55.295Z,12.56
2018-11-14T10:30:28.357Z,12.70
2018-11-14T10:32:57.515Z,12.76
2018-11-14T10:35:27.954Z,12.90
2018-11-14T10:37:57.122Z,12.98
2018-11-14T10:40:27.939Z,13.09
2018-11-14T10:42:56.894Z,13.04
2018-11-14T10:45:26.469Z,12.93
2018-11-14T10:47:55.497Z,12.87
2018-11-14T10:50:26.281Z,12.90
2018-11-14T10:52:55.044Z,12.88
2018-11-14T10:55:24.197Z,12.89
2018-11-14T10:57:53.436Z,12.91
2018-11-14T11:00:28.364Z,12.90
2018-11-14T11:03:02.860Z,12.94
2018-11-14T11:05:36.909Z,12.92
2018-11-14T11:08:11.039Z,12.95
2018-11-14T11:10:45.367Z,12.95
2018-11-14T11:13:19.141Z,12.93
2018-11-14T11:15:54.244Z,12.94
2018-11-14T11:18:29.734Z,12.86
2018-11-14T11:20:58.719Z,12.86
2018-11-14T11:23:28.011Z,12.90
2018-11-14T11:25:59.998Z,12.86
2018-11-14T11:28:30.042Z,12.94
2018-11-14T11:30:59.090Z,12.94
2018-11-14T11:33:28.103Z,12.89
2018-11-14T11:35:56.908Z,12.98
2018-11-14T11:38:25.769Z,12.98
2018-11-14T11:40:54.566Z,12.98
2018-11-14T11:43:23.390Z,12.91
2018-11-14T11:45:56.090Z,12.85
2018-11-14T11:48:24.822Z,12.76
2018-11-14T11:50:53.592Z,12.86
2018-11-14T11:53:22.447Z,12.89
2018-11-14T11:55:51.236Z,12.91
2018-11-14T11:58:19.974Z,12.86
2018-11-14T12:00:48.909Z,12.88
2018-11-14T12:03:17.582Z,12.83
2018-11-14T12:05:46.678Z,12.72
2018-11-14T12:08:15.495Z,12.85
2018-11-14T12:10:44.493Z,12.83
2018-11-14T12:13:13.315Z,12.93
2018-11-14T12:15:42.081Z,13.04
2018-11-14T12:18:11.210Z,13.06
2018-11-14T12:20:40.445Z,12.98
2018-11-14T12:23:10.493Z,13.11
2018-11-14T12:25:39.338Z,13.23
2018-11-14T12:28:08.073Z,13.30
2018-11-14T12:30:37.993Z,13.33
2018-11-14T12:33:07.238Z,13.30
2018-11-14T12:35:36.192Z,13.31
2018-11-14T12:38:05.275Z,13.33
2018-11-14T12:40:34.066Z,13.30
2018-11-14T12:43:02.870Z,13.35
2018-11-14T12:45:31.838Z,13.39
2018-11-14T12:48:00.631Z,13.38
2018-11-14T12:50:29.437Z,13.32
2018-11-14T12:52:58.511Z,13.35
2018-11-14T12:55:27.299Z,13.30
2018-11-14T12:57:56.368Z,13.35
2018-11-14T13:00:25.564Z,13.42
2018-11-14T13:02:54.989Z,13.38
2018-11-14T13:05:23.757Z,13.33
2018-11-14T13:07:52.975Z,13.30
2018-11-14T13:10:21.816Z,13.26
2018-11-14T13:12:51.170Z,13.23
2018-11-14T13:15:21.138Z,13.23
2018-11-14T13:17:50.086Z,13.16
2018-11-14T13:20:20.532Z,13.18
2018-11-14T13:22:49.459Z,13.24
2018-11-14T13:25:18.211Z,13.27
2018-11-14T13:27:47.841Z,13.25
2018-11-14T13:30:22.583Z,13.18
2018-11-14T13:32:51.961Z,13.15
2018-11-14T13:35:22.634Z,13.08
2018-11-14T13:37:52.095Z,13.11
2018-11-14T13:40:21.688Z,13.15
2018-11-14T13:42:50.628Z,13.13
2018-11-14T13:45:20.156Z,13.02
2018-11-14T13:47:49.064Z,12.97
2018-11-14T13:50:24.143Z,12.90
2018-11-14T13:52:53.028Z,12.89
2018-11-14T13:55:22.309Z,12.94
2018-11-14T13:57:52.185Z,12.96
2018-11-14T14:00:22.010Z,13.02
2018-11-14T14:02:54.067Z,13.00
2018-11-14T14:05:27.080Z,12.97
2018-11-14T14:08:03.838Z,13.02
2018-11-14T14:10:34.866Z,13.01
2018-11-14T14:13:04.394Z,13.06
2018-11-14T14:15:33.385Z,13.12
2018-11-14T14:18:02.155Z,13.17
2018-11-14T14:20:31.245Z,13.18
2018-11-14T14:23:00.033Z,13.17
2018-11-14T14:25:28.933Z,13.18
2018-11-14T14:27:57.951Z,13.16
2018-11-14T14:30:26.741Z,13.12
2018-11-14T14:32:55.595Z,12.99
2018-11-14T14:35:24.805Z,12.91
2018-11-14T14:37:53.662Z,12.81
2018-11-14T14:40:23.223Z,12.76
2018-11-14T14:42:52.206Z,12.78
2018-11-14T14:45:22.938Z,12.78
2018-11-14T14:47:51.982Z,12.78
2018-11-14T14:50:21.490Z,12.82
2018-11-14T14:52:50.275Z,12.84
2018-11-14T14:55:22.220Z,12.87
2018-11-14T14:57:51.128Z,12.83
2018-11-14T15:00:28.555Z,12.82
2018-11-14T15:02:57.342Z,12.80
2018-11-14T15:05:26.204Z,12.79
2018-11-14T15:07:55.155Z,12.83
2018-11-14T15:10:24.730Z,12.83
2018-11-14T15:12:53.475Z,12.79
2018-11-14T15:15:22.684Z,12.80
2018-11-14T15:17:51.394Z,12.78
2018-11-14T15:20:24.546Z,12.76
2018-11-14T15:22:53.524Z,12.77
2018-11-14T15:25:23.334Z,12.81
2018-11-14T15:27:52.547Z,12.81
2018-11-14T15:30:26.826Z,12.79
2018-11-14T15:32:56.071Z,12.72
2018-11-14T15:35:25.095Z,12.65
2018-11-14T15:37:53.745Z,12.69
2018-11-14T15:40:24.002Z,12.74
2018-11-14T15:42:52.910Z,12.76
2018-11-14T15:45:24.210Z,12.72
2018-11-14T15:47:53.025Z,12.72
2018-11-14T15:50:23.089Z,12.74
2018-11-14T15:52:52.853Z,12.74
2018-11-14T15:55:22.161Z,12.72
2018-11-14T15:57:50.955Z,12.73
2018-11-14T16:00:27.546Z,12.73
2018-11-14T16:02:56.806Z,12.69
2018-11-14T16:05:26.909Z,12.73
2018-11-14T16:07:57.063Z,12.68
2018-11-14T16:10:26.823Z,12.74
2018-11-14T16:12:55.577Z,12.72
2018-11-14T16:15:25.990Z,12.72
2018-11-14T16:17:54.828Z,12.72
2018-11-14T16:20:24.676Z,12.70
2018-11-14T16:22:53.598Z,12.70
2018-11-14T16:25:23.824Z,12.69
2018-11-14T16:27:53.902Z,12.74
2018-11-14T16:30:28.194Z,12.76
2018-11-14T16:32:58.260Z,12.76
2018-11-14T16:35:27.108Z,12.66
2018-11-14T16:37:55.966Z,12.67
2018-11-14T16:40:27.037Z,12.69
2018-11-14T16:42:56.805Z,12.67
2018-11-14T16:45:25.561Z,12.65
2018-11-14T16:47:54.352Z,12.68
2018-11-14T16:50:23.765Z,12.70
2018-11-14T16:52:52.494Z,12.72
2018-11-14T16:55:22.147Z,12.70
2018-11-14T16:57:52.963Z,12.62
2018-11-14T17:00:26.892Z,12.65
2018-11-14T17:02:55.943Z,12.65
2018-11-14T17:05:25.874Z,12.61
2018-11-14T17:07:54.787Z,12.62
2018-11-14T17:10:24.237Z,12.65
2018-11-14T17:12:55.397Z,12.66
2018-11-14T17:15:25.274Z,12.64
2018-11-14T17:17:54.053Z,12.66
2018-11-14T17:20:23.341Z,12.68
2018-11-14T17:22:53.599Z,12.70
2018-11-14T17:25:22.757Z,12.69
2018-11-14T17:27:51.516Z,12.71
2018-11-14T17:30:25.466Z,12.66
2018-11-14T17:32:54.551Z,12.68
2018-11-14T17:35:23.438Z,12.69
2018-11-14T17:37:52.482Z,12.64
2018-11-14T17:40:23.473Z,12.60
2018-11-14T17:42:52.847Z,12.60
2018-11-14T17:45:24.116Z,12.62
2018-11-14T17:47:53.295Z,12.59
2018-11-14T17:50:25.661Z,12.60
2018-11-14T17:52:54.938Z,12.58
2018-11-14T17:55:24.259Z,12.62
2018-11-14T17:57:53.216Z,12.58
2018-11-14T18:00:23.363Z,12.60
2018-11-14T18:02:52.155Z,12.60
2018-11-14T18:05:23.539Z,12.64
2018-11-14T18:07:53.082Z,12.58
2018-11-14T18:10:23.164Z,12.57
2018-11-14T18:12:53.066Z,12.56
2018-11-14T18:15:21.969Z,12.59
2018-11-14T18:17:52.373Z,12.61
2018-11-14T18:20:22.660Z,12.66
2018-11-14T18:22:52.115Z,12.56
2018-11-14T18:25:20.894Z,12.51
2018-11-14T18:27:49.803Z,12.47
2018-11-14T18:30:36.483Z,12.52
2018-11-14T18:33:05.825Z,12.54
2018-11-14T18:35:34.589Z,12.44
2018-11-14T18:38:03.637Z,12.38
2018-11-14T18:40:33.865Z,12.40
2018-11-14T18:43:02.711Z,12.44
2018-11-14T18:45:33.085Z,12.49
2018-11-14T18:48:02.673Z,12.49
2018-11-14T18:50:31.516Z,12.51
2018-11-14T18:53:00.425Z,12.43
2018-11-14T18:55:30.875Z,12.37
2018-11-14T18:58:00.365Z,12.34
2018-11-14T19:00:30.182Z,12.26
2018-11-14T19:02:59.233Z,12.29
2018-11-14T19:05:28.053Z,12.26
2018-11-14T19:07:56.848Z,12.30
2018-11-14T19:10:27.280Z,12.21
2018-11-14T19:12:56.107Z,12.27
2018-11-14T19:15:26.980Z,12.18
2018-11-14T19:17:56.127Z,12.16
2018-11-14T19:20:28.003Z,12.14
2018-11-14T19:22:57.541Z,12.04
2018-11-14T19:25:27.946Z,12.03
2018-11-14T19:27:56.710Z,12.00
2018-11-14T19:30:26.822Z,11.92
2018-11-14T19:32:56.190Z,11.88
2018-11-14T19:35:24.956Z,11.83
2018-11-14T19:37:54.862Z,11.82
2018-11-14T19:40:27.975Z,11.84
2018-11-14T19:42:57.981Z,11.76
2018-11-14T19:45:28.512Z,11.74
2018-11-14T19:47:57.339Z,11.71
2018-11-14T19:50:26.497Z,11.69
2018-11-14T19:52:55.391Z,11.67
2018-11-14T19:55:25.344Z,11.71
2018-11-14T19:57:55.956Z,11.68
2018-11-14T20:00:28.465Z,11.76
2018-11-14T20:02:57.323Z,11.80
2018-11-14T20:05:27.831Z,11.88
2018-11-14T20:07:56.624Z,11.92
2018-11-14T20:10:27.176Z,11.95
2018-11-14T20:12:55.991Z,11.90
2018-11-14T20:15:29.517Z,11.92
2018-11-14T20:17:58.421Z,11.93
2018-11-14T20:20:28.749Z,11.92
2018-11-14T20:22:57.662Z,11.93
2018-11-14T20:25:26.544Z,11.91
2018-11-14T20:27:55.313Z,11.89
2018-11-14T20:30:30.808Z,11.86
2018-11-14T20:33:01.288Z,11.87
2018-11-14T20:35:30.190Z,11.87
2018-11-14T20:37:59.083Z,11.84
2018-11-14T20:40:28.266Z,11.76
2018-11-14T20:42:57.430Z,11.74
2018-11-14T20:45:28.432Z,11.74
2018-11-14T20:47:57.190Z,11.71
2018-11-14T20:50:26.652Z,11.72
2018-11-14T20:52:57.337Z,11.65
2018-11-14T20:55:26.783Z,11.64
2018-11-14T20:57:55.602Z,11.59
2018-11-14T21:00:40.042Z,11.56
2018-11-14T21:03:09.282Z,11.56
2018-11-14T21:05:38.207Z,11.58
2018-11-14T21:08:07.390Z,11.55
2018-11-14T21:10:36.403Z,11.55
2018-11-14T21:13:06.003Z,11.52
2018-11-14T21:15:37.123Z,11.47
2018-11-14T21:18:06.076Z,11.46
2018-11-14T21:20:34.780Z,11.47
2018-11-14T21:23:03.743Z,11.46
2018-11-14T21:25:32.412Z,11.42
2018-11-14T21:28:01.269Z,11.41
2018-11-14T21:30:30.740Z,11.36
2018-11-14T21:32:59.906Z,11.36
2018-11-14T21:35:31.675Z,11.33
2018-11-14T21:38:01.998Z,11.30
2018-11-14T21:40:30.818Z,11.34
2018-11-14T21:43:00.340Z,11.33
2018-11-14T21:45:29.710Z,11.27
2018-11-14T21:48:04.645Z,11.25
2018-11-14T21:50:33.942Z,11.25
2018-11-14T21:53:02.753Z,11.19
2018-11-14T21:55:31.732Z,11.27
2018-11-14T21:58:00.506Z,11.26
2018-11-14T22:00:33.457Z,11.25
2018-11-14T22:03:02.569Z,11.24
2018-11-14T22:05:31.418Z,11.27
2018-11-14T22:08:00.326Z,11.25
2018-11-14T22:10:35.786Z,11.31
2018-11-14T22:13:04.671Z,11.32
2018-11-14T22:15:33.616Z,11.36
2018-11-14T22:18:02.355Z,11.36
2018-11-14T22:20:38.182Z,11.39
2018-11-14T22:23:06.953Z,11.37
2018-11-14T22:25:35.707Z,11.36
2018-11-14T22:28:05.706Z,11.35
2018-11-14T22:30:35.236Z,11.39
2018-11-14T22:33:04.069Z,11.40
2018-11-14T22:35:33.495Z,11.39
2018-11-14T22:38:02.252Z,11.38
2018-11-14T22:40:32.097Z,11.37
2018-11-14T22:43:00.850Z,11.37
2018-11-14T22:45:31.740Z,11.37
2018-11-14T22:48:00.480Z,11.31
2018-11-14T22:50:29.296Z,11.33
2018-11-14T22:52:58.010Z,11.31
2018-11-14T22:55:27.096Z,11.35
2018-11-14T22:57:56.042Z,11.33
2018-11-14T23:00:29.671Z,11.32
2018-11-14T23:03:00.709Z,11.29
2018-11-14T23:05:29.511Z,11.28
2018-11-14T23:07:58.925Z,11.32
2018-11-14T23:10:28.493Z,11.31
2018-11-14T23:12:57.263Z,11.32
2018-11-14T23:15:26.133Z,11.29
2018-11-14T23:17:55.004Z,11.28
2018-11-14T23:20:23.736Z,11.23
2018-11-14T23:22:53.013Z,11.25
2018-11-14T23:25:22.395Z,11.26
2018-11-14T23:27:52.311Z,11.28
2018-11-14T23:30:22.255Z,11.25
2018-11-14T23:32:52.328Z,11.31
2018-11-14T23:35:23.221Z,11.31
2018-11-14T23:37:56.244Z,11.20
2018-11-14T23:40:25.211Z,11.19
2018-11-14T23:42:54.102Z,11.10
2018-11-14T23:45:23.805Z,11.05
2018-11-14T23:47:52.581Z,11.01
2018-11-14T23:50:23.435Z,10.98
2018-11-14T23:52:53.208Z,10.95
2018-11-14T23:55:22.726Z,10.85
2018-11-14T23:57:51.470Z,10.85
